Time;durP1;ratioP1;P1;durP2;ratioP2;P2;SDS_P1;SDS_P2;PMS_P1;PMS_P2;Temp;Humidity;BMP_temperature;BMP_pressure;BME280_temperature;BME280_humidity;BME280_pressure;Samples;Min_cycle;Max_cycle;Signal;HPM_P1;HPM_P2
2022/05/10 00:00:49;;;;;;;73.60;13.13;;;;;;;;;;5053300;28;20487;-77
2022/05/10 00:03:17;;;;;;;70.67;12.17;;;;;;;;;;5061734;28;20451;-78
2022/05/10 00:05:44;;;;;;;71.33;11.87;;;;;;;;;;5074281;28;20539;-78
2022/05/10 00:08:12;;;;;;;71.63;12.83;;;;;;;;;;5073657;28;20534;-77
2022/05/10 00:10:40;;;;;;;69.97;13.00;;;;;;;;;;5075240;28;20463;-78
2022/05/10 00:13:09;;;;;;;69.23;12.07;;;;;;;;;;5074607;28;20446;-77
2022/05/10 00:15:36;;;;;;;85.60;13.30;;;;;;;;;;5074599;28;20449;-78
2022/05/10 00:18:04;;;;;;;80.23;12.53;;;;;;;;;;5077220;28;20474;-77
2022/05/10 00:20:31;;;;;;;70.60;13.67;;;;;;;;;;5078295;28;20554;-77
2022/05/10 00:22:58;;;;;;;70.90;13.37;;;;;;;;;;5077964;28;20451;-77
2022/05/10 00:25:26;;;;;;;69.67;12.07;;;;;;;;;;5078453;28;20451;-77
2022/05/10 00:27:53;;;;;;;70.60;12.27;;;;;;;;;;5077628;28;20546;-78
2022/05/10 00:30:22;;;;;;;71.17;12.90;;;;;;;;;;5078006;28;20571;-77
2022/05/10 00:32:50;;;;;;;71.43;12.53;;;;;;;;;;5077940;28;20447;-77
2022/05/10 00:35:18;;;;;;;68.87;11.63;;;;;;;;;;5074307;28;20447;-77
2022/05/10 00:37:46;;;;;;;97.13;13.47;;;;;;;;;;5077255;28;20530;-77
2022/05/10 00:40:14;;;;;;;68.50;12.30;;;;;;;;;;5077434;28;20491;-77
2022/05/10 00:42:47;;;;;;;72.80;12.50;;;;;;;;;;5078328;28;20530;-77
2022/05/10 00:45:16;;;;;;;77.00;12.20;;;;;;;;;;5077914;28;20538;-77
2022/05/10 00:47:47;;;;;;;70.80;12.20;;;;;;;;;;5077605;28;20648;-78
2022/05/10 00:50:18;;;;;;;73.90;13.33;;;;;;;;;;5077843;28;20499;-77
2022/05/10 00:52:48;;;;;;;71.10;13.00;;;;;;;;;;5077864;28;20873;-77
2022/05/10 00:55:18;;;;;;;69.70;11.97;;;;;;;;;;5077871;28;20485;-78
2022/05/10 00:57:48;;;;;;;70.10;13.07;;;;;;;;;;5076143;28;21026;-76
2022/05/10 01:00:17;;;;;;;76.43;12.70;;;;;;;;;;5077644;28;20951;-77
2022/05/10 01:02:50;;;;;;;70.40;13.77;;;;;;;;;;5077447;28;20439;-78
2022/05/10 01:05:19;;;;;;;68.87;14.03;;;;;;;;;;5077442;28;20534;-78
2022/05/10 01:07:52;;;;;;;70.03;13.37;;;;;;;;;;5061441;28;20489;-77
2022/05/10 01:10:23;;;;;;;68.67;12.10;;;;;;;;;;5057341;28;20507;-77
2022/05/10 01:12:54;;;;;;;66.17;9.70;;;;;;;;;;5057247;28;20534;-77
2022/05/10 01:15:22;;;;;;;68.23;10.40;;;;;;;;;;5057630;28;20539;-77
2022/05/10 01:17:52;;;;;;;71.00;10.23;;;;;;;;;;5056733;28;20448;-78
2022/05/10 01:20:20;;;;;;;65.37;9.57;;;;;;;;;;5057067;28;20494;-77
2022/05/10 01:22:56;;;;;;;65.60;9.47;;;;;;;;;;5056812;28;20535;-77
2022/05/10 01:25:30;;;;;;;87.53;10.37;;;;;;;;;;5056696;28;20527;-78
2022/05/10 01:28:16;;;;;;;71.50;8.70;;;;;;;;;;5053695;28;20450;-77
2022/05/10 01:30:43;;;;;;;64.20;7.20;;;;;;;;;;5057062;28;20547;-77
2022/05/10 01:36:10;;;;;;;65.93;7.10;;;;;;;;;;5031975;28;20444;-77
2022/05/10 01:38:41;;;;;;;62.77;6.60;;;;;;;;;;5055525;28;21216;-77
2022/05/10 01:41:10;;;;;;;64.30;5.90;;;;;;;;;;5069472;28;21006;-78
2022/05/10 01:43:41;;;;;;;63.07;5.83;;;;;;;;;;5075199;28;20978;-77
2022/05/10 01:46:12;;;;;;;61.13;5.27;;;;;;;;;;5077177;28;21036;-78
2022/05/10 01:48:41;;;;;;;60.33;4.60;;;;;;;;;;5076808;28;20454;-78
2022/05/10 01:51:11;;;;;;;61.03;4.83;;;;;;;;;;5075127;28;20873;-77
2022/05/10 01:53:40;;;;;;;59.77;4.33;;;;;;;;;;5073828;28;20534;-76
2022/05/10 01:56:09;;;;;;;61.17;4.53;;;;;;;;;;5073172;28;21014;-76
2022/05/10 01:58:38;;;;;;;61.20;4.33;;;;;;;;;;5072942;28;21022;-77
2022/05/10 02:01:08;;;;;;;59.70;3.77;;;;;;;;;;5076862;28;20522;-77
2022/05/10 02:03:36;;;;;;;60.73;3.67;;;;;;;;;;5076259;28;20481;-77
2022/05/10 02:06:08;;;;;;;59.23;3.43;;;;;;;;;;5072709;28;20455;-77
2022/05/10 02:08:38;;;;;;;59.83;3.93;;;;;;;;;;5075939;28;20793;-78
2022/05/10 02:11:09;;;;;;;59.67;3.53;;;;;;;;;;5067993;28;20472;-77
2022/05/10 02:13:39;;;;;;;59.60;2.80;;;;;;;;;;5056260;28;20943;-78
2022/05/10 02:16:10;;;;;;;59.27;3.13;;;;;;;;;;5054193;28;20448;-77
2022/05/10 02:18:41;;;;;;;59.00;2.93;;;;;;;;;;5055793;28;20447;-77
2022/05/10 02:21:11;;;;;;;59.47;3.00;;;;;;;;;;5055895;28;20572;-77
2022/05/10 02:23:41;;;;;;;60.43;3.67;;;;;;;;;;5055549;28;20466;-77
2022/05/10 02:26:09;;;;;;;58.93;3.00;;;;;;;;;;5055249;28;20480;-77
2022/05/10 02:28:40;;;;;;;59.17;2.93;;;;;;;;;;5054458;28;20548;-77
2022/05/10 02:31:11;;;;;;;58.83;2.67;;;;;;;;;;5054061;28;20558;-77
2022/05/10 02:33:37;;;;;;;59.03;2.93;;;;;;;;;;5055640;28;20490;-77
2022/05/10 02:36:05;;;;;;;59.17;3.00;;;;;;;;;;5055776;28;20456;-77
2022/05/10 02:38:33;;;;;;;59.10;2.83;;;;;;;;;;5053369;28;20554;-77
2022/05/10 02:41:01;;;;;;;58.97;3.00;;;;;;;;;;5054425;28;20557;-77
2022/05/10 02:43:29;;;;;;;59.27;3.30;;;;;;;;;;5053248;28;20452;-77
2022/05/10 02:45:56;;;;;;;59.43;3.63;;;;;;;;;;5054819;28;20543;-77
2022/05/10 02:48:26;;;;;;;59.13;2.80;;;;;;;;;;5054587;28;20479;-77
2022/05/10 02:50:53;;;;;;;59.30;3.40;;;;;;;;;;5055542;28;20463;-77
2022/05/10 02:53:21;;;;;;;60.80;4.40;;;;;;;;;;5055713;28;20456;-77
2022/05/10 02:55:51;;;;;;;59.07;3.00;;;;;;;;;;5053349;28;20878;-77
2022/05/10 02:58:23;;;;;;;58.87;2.77;;;;;;;;;;5053182;28;20455;-75
2022/05/10 03:00:51;;;;;;;58.83;2.80;;;;;;;;;;5052515;28;20488;-77
2022/05/10 03:03:20;;;;;;;59.60;3.10;;;;;;;;;;5054314;28;20451;-77
2022/05/10 03:05:48;;;;;;;59.60;3.00;;;;;;;;;;5054161;28;20463;-77
2022/05/10 03:08:15;;;;;;;59.13;2.80;;;;;;;;;;5052738;28;20513;-77
2022/05/10 03:10:42;;;;;;;59.30;3.07;;;;;;;;;;5054360;28;20550;-77
2022/05/10 03:13:10;;;;;;;59.40;3.30;;;;;;;;;;5053682;28;20448;-78
2022/05/10 03:15:37;;;;;;;59.70;3.40;;;;;;;;;;5051327;28;20448;-77
2022/05/10 03:18:04;;;;;;;59.40;3.50;;;;;;;;;;5054426;28;20571;-77
2022/05/10 03:20:31;;;;;;;58.97;2.83;;;;;;;;;;5054862;28;20518;-77
2022/05/10 03:23:00;;;;;;;59.03;2.67;;;;;;;;;;5054679;28;20527;-77
2022/05/10 03:25:27;;;;;;;59.30;2.90;;;;;;;;;;5054173;28;20459;-77
2022/05/10 03:27:54;;;;;;;58.90;2.80;;;;;;;;;;5054396;28;20960;-77
2022/05/10 03:30:21;;;;;;;61.53;3.13;;;;;;;;;;5055001;28;20464;-77
2022/05/10 03:32:48;;;;;;;59.30;3.30;;;;;;;;;;5054462;28;20455;-77
2022/05/10 03:35:16;;;;;;;59.17;2.90;;;;;;;;;;5054824;28;20546;-77
2022/05/10 03:37:44;;;;;;;59.40;2.90;;;;;;;;;;5054005;28;20458;-77
2022/05/10 03:40:13;;;;;;;59.60;3.67;;;;;;;;;;5054717;28;20515;-77
2022/05/10 03:42:44;;;;;;;58.97;2.83;;;;;;;;;;5054668;28;20523;-77
2022/05/10 03:45:12;;;;;;;59.07;2.73;;;;;;;;;;5053727;28;20984;-77
2022/05/10 03:47:39;;;;;;;59.70;3.50;;;;;;;;;;5051463;28;20452;-77
2022/05/10 03:50:07;;;;;;;59.47;2.90;;;;;;;;;;5054066;28;20558;-77
2022/05/10 03:52:34;;;;;;;59.30;2.90;;;;;;;;;;5057548;28;20462;-77
2022/05/10 03:55:03;;;;;;;59.03;3.10;;;;;;;;;;5058150;28;20998;-77
2022/05/10 03:57:31;;;;;;;59.30;3.10;;;;;;;;;;5057463;28;20794;-77
2022/05/10 03:59:58;;;;;;;59.40;2.90;;;;;;;;;;5058678;28;20474;-77
2022/05/10 04:02:26;;;;;;;59.13;2.80;;;;;;;;;;5058846;28;20461;-77
2022/05/10 04:04:53;;;;;;;59.10;3.00;;;;;;;;;;5058353;28;20527;-77
2022/05/10 04:07:20;;;;;;;59.17;2.80;;;;;;;;;;5058608;28;20444;-77
2022/05/10 04:09:48;;;;;;;59.47;3.53;;;;;;;;;;5058458;28;20510;-77
2022/05/10 04:12:15;;;;;;;59.50;3.20;;;;;;;;;;5058406;28;20527;-77
2022/05/10 04:14:43;;;;;;;59.90;3.70;;;;;;;;;;5058219;28;20454;-77
2022/05/10 04:17:10;;;;;;;59.13;2.90;;;;;;;;;;5056269;28;20557;-77
2022/05/10 04:19:38;;;;;;;58.80;2.77;;;;;;;;;;5070419;28;21054;-77
2022/05/10 04:22:05;;;;;;;59.13;3.37;;;;;;;;;;5078214;28;20574;-77
2022/05/10 04:24:32;;;;;;;59.40;3.00;;;;;;;;;;5078143;28;20454;-77
2022/05/10 04:27:00;;;;;;;58.70;2.80;;;;;;;;;;5078053;28;20525;-77
2022/05/10 04:29:27;;;;;;;59.00;3.17;;;;;;;;;;5077756;28;20450;-77
2022/05/10 04:31:56;;;;;;;58.97;3.20;;;;;;;;;;5078147;28;21039;-77
2022/05/10 04:34:23;;;;;;;59.67;2.97;;;;;;;;;;5077845;28;20906;-77
2022/05/10 04:36:50;;;;;;;59.07;2.80;;;;;;;;;;5078107;28;20987;-77
2022/05/10 04:39:17;;;;;;;59.50;3.00;;;;;;;;;;5077102;28;20545;-77
2022/05/10 04:41:44;;;;;;;59.03;2.80;;;;;;;;;;5078268;28;20483;-77
2022/05/10 04:44:12;;;;;;;58.80;2.77;;;;;;;;;;5076848;28;20447;-77
2022/05/10 04:46:40;;;;;;;61.77;3.90;;;;;;;;;;5078096;28;20443;-77
2022/05/10 04:49:10;;;;;;;58.90;2.80;;;;;;;;;;5074908;28;20991;-77
2022/05/10 04:51:37;;;;;;;58.97;2.80;;;;;;;;;;5077506;28;20521;-77
2022/05/10 04:54:04;;;;;;;58.90;2.70;;;;;;;;;;5077789;28;20453;-77
2022/05/10 04:56:31;;;;;;;58.87;3.00;;;;;;;;;;5077915;28;20479;-78
2022/05/10 04:58:59;;;;;;;58.87;2.80;;;;;;;;;;5076442;28;20458;-77
2022/05/10 05:01:27;;;;;;;59.00;3.50;;;;;;;;;;5077452;28;20885;-77
2022/05/10 05:03:56;;;;;;;59.60;3.40;;;;;;;;;;5077635;28;20804;-77
2022/05/10 05:06:25;;;;;;;59.40;3.73;;;;;;;;;;5077190;28;20967;-77
2022/05/10 05:08:52;;;;;;;59.07;3.33;;;;;;;;;;5077194;28;20497;-77
2022/05/10 05:11:19;;;;;;;58.93;2.70;;;;;;;;;;5077823;28;20464;-77
2022/05/10 05:13:46;;;;;;;58.57;2.77;;;;;;;;;;5077747;28;20451;-77
2022/05/10 05:16:14;;;;;;;59.30;2.90;;;;;;;;;;5077726;28;20451;-78
2022/05/10 05:18:41;;;;;;;58.93;3.10;;;;;;;;;;5077362;28;20481;-77
2022/05/10 05:21:08;;;;;;;59.60;3.43;;;;;;;;;;5076114;28;20987;-78
2022/05/10 05:23:37;;;;;;;59.27;3.67;;;;;;;;;;5076634;28;20478;-77
2022/05/10 05:26:04;;;;;;;59.13;3.40;;;;;;;;;;5077609;28;20474;-78
2022/05/10 05:28:31;;;;;;;59.57;3.17;;;;;;;;;;5076283;28;20508;-77
2022/05/10 05:30:59;;;;;;;60.20;3.40;;;;;;;;;;5077164;28;20555;-77
2022/05/10 05:33:26;;;;;;;58.80;3.30;;;;;;;;;;5077315;28;20473;-78
2022/05/10 05:35:54;;;;;;;60.70;4.10;;;;;;;;;;5077088;28;20454;-78
2022/05/10 05:38:21;;;;;;;59.33;3.27;;;;;;;;;;5076359;28;20468;-77
2022/05/10 05:40:49;;;;;;;59.50;3.97;;;;;;;;;;5076602;28;20554;-78
2022/05/10 05:43:18;;;;;;;59.17;3.00;;;;;;;;;;5077314;28;20454;-78
2022/05/10 05:45:46;;;;;;;59.30;3.37;;;;;;;;;;5077117;28;20451;-77
2022/05/10 05:48:13;;;;;;;59.30;3.27;;;;;;;;;;5076703;28;20459;-78
2022/05/10 05:50:40;;;;;;;59.23;3.50;;;;;;;;;;5077952;28;20475;-78
2022/05/10 05:53:08;;;;;;;59.37;3.63;;;;;;;;;;5076754;28;20449;-77
2022/05/10 05:55:35;;;;;;;59.00;3.30;;;;;;;;;;5077539;28;20959;-78
2022/05/10 05:58:04;;;;;;;61.70;4.17;;;;;;;;;;5076663;28;20491;-77
2022/05/10 06:00:31;;;;;;;58.67;2.80;;;;;;;;;;5077335;28;20474;-78
2022/05/10 06:02:58;;;;;;;58.77;2.90;;;;;;;;;;5077307;28;20971;-77
2022/05/10 06:05:27;;;;;;;60.63;4.03;;;;;;;;;;5077124;28;21074;-78
2022/05/10 06:07:54;;;;;;;62.40;5.30;;;;;;;;;;5076351;28;20487;-77
2022/05/10 06:10:21;;;;;;;59.60;4.07;;;;;;;;;;5076908;28;20474;-77
2022/05/10 06:12:48;;;;;;;59.80;4.20;;;;;;;;;;5076856;28;20953;-77
2022/05/10 06:15:18;;;;;;;59.90;3.10;;;;;;;;;;5076579;28;20449;-78
2022/05/10 06:17:47;;;;;;;58.83;2.80;;;;;;;;;;5076508;28;20561;-78
2022/05/10 06:20:15;;;;;;;60.37;4.33;;;;;;;;;;5077255;28;20485;-77
2022/05/10 06:22:44;;;;;;;58.80;2.90;;;;;;;;;;5077089;28;20491;-77
2022/05/10 06:25:12;;;;;;;59.80;5.10;;;;;;;;;;5077133;28;20495;-78
2022/05/10 06:27:39;;;;;;;59.07;3.50;;;;;;;;;;5076522;28;20461;-78
2022/05/10 06:30:07;;;;;;;59.60;4.63;;;;;;;;;;5077756;28;20904;-78
2022/05/10 06:32:35;;;;;;;58.67;3.37;;;;;;;;;;5077818;28;20476;-78
2022/05/10 06:35:03;;;;;;;60.23;3.83;;;;;;;;;;5077255;28;20535;-78
2022/05/10 06:40:16;;;;;;;59.37;3.77;;;;;;;;;;5077415;28;20837;-78
2022/05/10 06:42:43;;;;;;;59.97;4.00;;;;;;;;;;5077716;28;20557;-77
2022/05/10 06:45:11;;;;;;;59.90;3.97;;;;;;;;;;5077973;28;20486;-78
2022/05/10 06:47:41;;;;;;;61.50;4.57;;;;;;;;;;5077346;28;20446;-78
2022/05/10 06:50:09;;;;;;;59.17;3.37;;;;;;;;;;5078135;28;21080;-78
2022/05/10 06:52:36;;;;;;;59.30;3.50;;;;;;;;;;5078317;28;20454;-78
2022/05/10 06:55:04;;;;;;;59.77;4.57;;;;;;;;;;5078276;28;20456;-78
2022/05/10 06:57:31;;;;;;;59.63;3.97;;;;;;;;;;5076558;28;20446;-78
2022/05/10 06:59:58;;;;;;;59.80;3.80;;;;;;;;;;5077079;28;20560;-78
2022/05/10 07:02:25;;;;;;;59.37;3.83;;;;;;;;;;5076797;28;20512;-78
2022/05/10 07:04:55;;;;;;;59.90;4.20;;;;;;;;;;5076615;28;20442;-78
2022/05/10 07:07:22;;;;;;;59.43;4.33;;;;;;;;;;5072661;28;20454;-75
2022/05/10 07:09:49;;;;;;;59.13;3.40;;;;;;;;;;5071999;28;20473;-75
2022/05/10 07:12:16;;;;;;;61.93;4.37;;;;;;;;;;5071929;28;20446;-74
2022/05/10 07:14:45;;;;;;;59.17;3.80;;;;;;;;;;5071901;28;20497;-74
2022/05/10 07:17:12;;;;;;;58.97;3.40;;;;;;;;;;5072839;28;20449;-75
2022/05/10 07:19:39;;;;;;;59.70;4.07;;;;;;;;;;5071934;28;20554;-76
2022/05/10 07:22:08;;;;;;;59.97;4.73;;;;;;;;;;5071687;28;20573;-76
2022/05/10 07:24:35;;;;;;;59.00;3.07;;;;;;;;;;5071656;28;20447;-76
2022/05/10 07:27:02;;;;;;;60.20;5.20;;;;;;;;;;5071639;28;20473;-76
2022/05/10 07:29:29;;;;;;;59.70;4.10;;;;;;;;;;5071283;28;20453;-76
2022/05/10 07:31:57;;;;;;;59.20;3.80;;;;;;;;;;5072315;28;20447;-76
2022/05/10 07:34:24;;;;;;;58.77;3.40;;;;;;;;;;5071613;28;20451;-76
2022/05/10 07:36:51;;;;;;;59.83;3.73;;;;;;;;;;5071736;28;21018;-75
2022/05/10 07:39:21;;;;;;;59.70;3.63;;;;;;;;;;5070694;28;20458;-76
2022/05/10 07:41:51;;;;;;;61.73;4.43;;;;;;;;;;5071597;28;20482;-76
2022/05/10 07:44:18;;;;;;;62.83;5.17;;;;;;;;;;5071834;28;20521;-75
2022/05/10 07:46:45;;;;;;;60.90;3.30;;;;;;;;;;5071776;28;20458;-76
2022/05/10 07:49:12;;;;;;;59.60;3.63;;;;;;;;;;5070803;28;20552;-75
2022/05/10 07:51:39;;;;;;;59.87;4.07;;;;;;;;;;5071519;28;20454;-75
2022/05/10 07:54:07;;;;;;;63.10;4.93;;;;;;;;;;5071370;28;20447;-76
2022/05/10 07:56:37;;;;;;;59.30;4.40;;;;;;;;;;5071721;28;20827;-76
2022/05/10 07:59:04;;;;;;;58.50;3.87;;;;;;;;;;5070962;28;20452;-76
2022/05/10 08:01:32;;;;;;;59.47;4.20;;;;;;;;;;5071667;28;20567;-76
2022/05/10 08:03:59;;;;;;;59.20;3.40;;;;;;;;;;5072352;28;20540;-77
2022/05/10 08:06:27;;;;;;;60.20;4.70;;;;;;;;;;5071479;28;20495;-77
2022/05/10 08:08:54;;;;;;;59.20;4.00;;;;;;;;;;5070498;28;20460;-77
2022/05/10 08:11:22;;;;;;;58.90;3.50;;;;;;;;;;5071357;28;20471;-78
2022/05/10 08:13:50;;;;;;;59.83;3.87;;;;;;;;;;5071536;28;20464;-77
2022/05/10 08:16:17;;;;;;;60.20;4.60;;;;;;;;;;5071420;28;20459;-78
2022/05/10 08:18:48;;;;;;;60.27;4.47;;;;;;;;;;5070714;28;20458;-77
2022/05/10 08:21:15;;;;;;;59.73;3.47;;;;;;;;;;5070994;28;20556;-78
2022/05/10 08:23:43;;;;;;;60.27;4.53;;;;;;;;;;5071392;28;20536;-78
2022/05/10 08:26:10;;;;;;;62.50;4.90;;;;;;;;;;5071416;28;20452;-78
2022/05/10 08:28:39;;;;;;;60.27;4.97;;;;;;;;;;5070725;28;20539;-78
2022/05/10 08:31:09;;;;;;;59.17;3.83;;;;;;;;;;5071563;28;20473;-78
2022/05/10 08:33:37;;;;;;;59.27;4.10;;;;;;;;;;5071145;28;20441;-77
2022/05/10 08:36:05;;;;;;;59.83;3.90;;;;;;;;;;5071066;28;20523;-77
2022/05/10 08:38:33;;;;;;;59.13;3.90;;;;;;;;;;5073653;28;20466;-79
2022/05/10 08:41:02;;;;;;;58.80;3.70;;;;;;;;;;5074868;28;20465;-78
2022/05/10 08:43:32;;;;;;;59.17;3.60;;;;;;;;;;5074693;28;20508;-78
2022/05/10 08:45:59;;;;;;;60.03;4.27;;;;;;;;;;5074675;28;20532;-78
2022/05/10 08:48:29;;;;;;;59.00;3.30;;;;;;;;;;5073799;28;20443;-78
2022/05/10 08:50:57;;;;;;;59.27;3.93;;;;;;;;;;5074681;28;20816;-78
2022/05/10 08:53:25;;;;;;;58.67;3.47;;;;;;;;;;5074473;28;20455;-78
2022/05/10 08:55:55;;;;;;;58.70;3.33;;;;;;;;;;5074429;28;20542;-78
2022/05/10 08:58:32;;;;;;;58.67;3.73;;;;;;;;;;5073849;28;20455;-78
2022/05/10 09:01:01;;;;;;;59.93;4.10;;;;;;;;;;5074287;28;20557;-78
2022/05/10 09:03:32;;;;;;;63.10;4.30;;;;;;;;;;5074373;28;20574;-78
2022/05/10 09:06:02;;;;;;;60.60;4.33;;;;;;;;;;5074498;28;20844;-76
2022/05/10 09:08:32;;;;;;;58.87;3.83;;;;;;;;;;5073696;28;20447;-78
2022/05/10 09:11:01;;;;;;;59.50;3.90;;;;;;;;;;5074251;28;20562;-78
2022/05/10 09:13:29;;;;;;;60.17;3.90;;;;;;;;;;5073974;28;20454;-76
2022/05/10 09:15:57;;;;;;;59.33;3.33;;;;;;;;;;5074339;28;20443;-76
2022/05/10 09:18:25;;;;;;;59.60;3.87;;;;;;;;;;5073401;28;20547;-76
2022/05/10 09:21:04;;;;;;;59.50;4.00;;;;;;;;;;5074150;28;20558;-78
2022/05/10 09:23:35;;;;;;;58.77;3.20;;;;;;;;;;5073880;28;20509;-76
2022/05/10 09:26:03;;;;;;;59.70;3.57;;;;;;;;;;5073941;28;20447;-76
2022/05/10 09:28:35;;;;;;;59.20;3.80;;;;;;;;;;5073457;28;20547;-76
2022/05/10 09:36:53;;;;;;;59.77;4.20;;;;;;;;;;5073766;28;20484;-76
2022/05/10 09:39:23;;;;;;;58.93;3.80;;;;;;;;;;5072939;28;20545;-76
2022/05/10 09:41:54;;;;;;;59.57;4.00;;;;;;;;;;5073857;28;20462;-79
2022/05/10 09:44:23;;;;;;;59.07;3.60;;;;;;;;;;5073875;28;20461;-79
2022/05/10 09:46:51;;;;;;;58.80;3.00;;;;;;;;;;5074391;28;20554;-79
2022/05/10 09:49:35;;;;;;;59.63;3.77;;;;;;;;;;5073071;28;20497;-79
2022/05/10 09:52:05;;;;;;;58.97;3.17;;;;;;;;;;5074388;28;20497;-77
2022/05/10 09:54:36;;;;;;;59.83;3.87;;;;;;;;;;5073550;28;20547;-75
2022/05/10 09:57:03;;;;;;;59.50;3.77;;;;;;;;;;5073852;28;20936;-78
2022/05/10 09:59:32;;;;;;;58.77;3.27;;;;;;;;;;5072833;28;20503;-78
2022/05/10 10:02:00;;;;;;;58.90;3.03;;;;;;;;;;5073268;28;20483;-78
2022/05/10 10:04:31;;;;;;;61.57;4.50;;;;;;;;;;5073130;28;20470;-75
2022/05/10 10:07:09;;;;;;;58.70;3.20;;;;;;;;;;5073241;28;20451;-76
2022/05/10 10:09:37;;;;;;;58.77;3.20;;;;;;;;;;5072859;28;20470;-75
2022/05/10 10:12:05;;;;;;;58.80;3.00;;;;;;;;;;5073007;28;20476;-77
2022/05/10 10:14:35;;;;;;;59.47;3.53;;;;;;;;;;5077914;28;20554;-76
2022/05/10 10:17:02;;;;;;;62.30;4.77;;;;;;;;;;5073080;28;20447;-76
2022/05/10 10:19:32;;;;;;;58.87;3.37;;;;;;;;;;5072376;28;20986;-76
2022/05/10 10:22:02;;;;;;;58.77;3.40;;;;;;;;;;5073048;28;20483;-76
2022/05/10 10:24:35;;;;;;;61.70;4.20;;;;;;;;;;5072914;28;20445;-76
2022/05/10 10:27:06;;;;;;;58.27;2.80;;;;;;;;;;5072918;28;20478;-77
2022/05/10 10:29:36;;;;;;;58.27;2.90;;;;;;;;;;5072452;28;20510;-76
2022/05/10 10:32:06;;;;;;;58.90;3.73;;;;;;;;;;5072510;28;20447;-76
2022/05/10 10:34:36;;;;;;;58.40;3.07;;;;;;;;;;5072414;28;20450;-77
2022/05/10 10:37:05;;;;;;;62.80;3.33;;;;;;;;;;5072625;28;20939;-76
2022/05/10 10:39:38;;;;;;;58.20;3.10;;;;;;;;;;5071912;28;20988;-76
2022/05/10 10:42:09;;;;;;;58.37;2.93;;;;;;;;;;5072532;28;20534;-77
2022/05/10 10:44:39;;;;;;;58.40;2.90;;;;;;;;;;5072425;28;20459;-77
2022/05/10 10:47:11;;;;;;;58.20;3.20;;;;;;;;;;5071962;28;20451;-78
2022/05/10 10:49:40;;;;;;;57.97;2.90;;;;;;;;;;5071842;28;20546;-77
2022/05/10 10:52:08;;;;;;;58.10;2.70;;;;;;;;;;5072255;28;20450;-77
2022/05/10 10:54:37;;;;;;;58.27;3.00;;;;;;;;;;5072224;28;20482;-76
2022/05/10 10:57:15;;;;;;;58.63;2.90;;;;;;;;;;5069686;28;20967;-76
2022/05/10 10:59:50;;;;;;;58.30;2.87;;;;;;;;;;5051369;28;20918;-74
2022/05/10 11:02:34;;;;;;;58.50;3.23;;;;;;;;;;5052053;28;20495;-75
2022/05/10 11:05:10;;;;;;;58.10;2.90;;;;;;;;;;5051987;28;20540;-75
2022/05/10 11:07:44;;;;;;;58.03;2.80;;;;;;;;;;5051244;28;20487;-75
2022/05/10 11:10:23;;;;;;;58.43;3.13;;;;;;;;;;5051681;28;21259;-75
2022/05/10 11:12:53;;;;;;;58.67;3.43;;;;;;;;;;5051656;28;20448;-75
2022/05/10 11:15:29;;;;;;;59.50;3.43;;;;;;;;;;5051784;28;20487;-75
2022/05/10 11:18:04;;;;;;;58.67;3.20;;;;;;;;;;5051012;28;21023;-75
2022/05/10 11:20:39;;;;;;;58.60;2.97;;;;;;;;;;5051530;28;20562;-75
2022/05/10 11:23:07;;;;;;;58.03;2.57;;;;;;;;;;5051605;28;21172;-75
2022/05/10 11:25:47;;;;;;;57.90;2.70;;;;;;;;;;5051733;28;20459;-74
2022/05/10 11:28:27;;;;;;;58.07;2.97;;;;;;;;;;5050954;28;20543;-75
2022/05/10 11:30:58;;;;;;;59.50;3.40;;;;;;;;;;5050528;28;20474;-75
2022/05/10 11:33:32;;;;;;;58.03;3.00;;;;;;;;;;5051452;28;21043;-75
2022/05/10 11:36:05;;;;;;;58.30;2.87;;;;;;;;;;5050924;28;20498;-75
2022/05/10 11:38:47;;;;;;;58.50;2.70;;;;;;;;;;5056488;28;20906;-75
2022/05/10 11:41:18;;;;;;;58.30;3.00;;;;;;;;;;5071892;28;20816;-75
2022/05/10 11:44:01;;;;;;;58.37;3.37;;;;;;;;;;5071418;28;20467;-76
2022/05/10 11:46:55;;;;;;;58.17;2.63;;;;;;;;;;5071655;28;20479;-76
2022/05/10 11:49:45;;;;;;;57.07;2.90;;;;;;;;;;5035120;28;21003;-76
2022/05/10 11:52:20;;;;;;;58.00;3.33;;;;;;;;;;5071597;28;20928;-75
2022/05/10 11:55:02;;;;;;;57.07;2.70;;;;;;;;;;5071576;28;20538;-76
2022/05/10 11:57:32;;;;;;;59.97;4.20;;;;;;;;;;5070841;28;20952;-75
2022/05/10 12:00:14;;;;;;;57.60;2.77;;;;;;;;;;5071101;28;20503;-75
2022/05/10 12:02:45;;;;;;;57.47;2.60;;;;;;;;;;5071469;28;20581;-76
2022/05/10 12:05:20;;;;;;;58.07;2.77;;;;;;;;;;5071762;28;20448;-76
2022/05/10 12:07:47;;;;;;;58.17;3.83;;;;;;;;;;5070686;28;20880;-76
2022/05/10 12:10:29;;;;;;;57.83;2.90;;;;;;;;;;5068274;28;20927;-76
2022/05/10 12:13:05;;;;;;;59.10;3.50;;;;;;;;;;5071177;28;20525;-76
2022/05/10 12:21:21;;;;;;;59.03;4.13;;;;;;;;;;5074937;28;20465;-76
2022/05/10 12:24:06;;;;;;;57.90;3.20;;;;;;;;;;5075124;28;20449;-76
2022/05/10 12:26:36;;;;;;;57.80;3.07;;;;;;;;;;5075156;28;20478;-76
2022/05/10 12:29:04;;;;;;;58.10;2.80;;;;;;;;;;5074263;28;20959;-76
2022/05/10 12:31:52;;;;;;;58.17;3.33;;;;;;;;;;5074684;28;20995;-76
2022/05/10 12:34:38;;;;;;;58.10;2.70;;;;;;;;;;5074663;28;20931;-76
2022/05/10 12:37:36;;;;;;;57.77;2.53;;;;;;;;;;5074638;28;20443;-76
2022/05/10 12:40:05;;;;;;;57.87;2.67;;;;;;;;;;5012557;28;20474;-76
2022/05/10 12:42:37;;;;;;;57.60;2.80;;;;;;;;;;5057558;28;20462;-76
2022/05/10 12:45:15;;;;;;;57.87;2.63;;;;;;;;;;5074747;28;20792;-76
2022/05/10 12:47:52;;;;;;;59.00;3.00;;;;;;;;;;5073945;28;20467;-76
2022/05/10 12:50:26;;;;;;;58.10;3.03;;;;;;;;;;5074647;28;20839;-76
2022/05/10 12:52:53;;;;;;;58.17;3.07;;;;;;;;;;5061085;28;21065;-76
2022/05/10 12:55:21;;;;;;;58.90;3.33;;;;;;;;;;5054614;28;20454;-76
2022/05/10 12:57:51;;;;;;;57.57;2.40;;;;;;;;;;5053623;28;20445;-76
2022/05/10 13:00:23;;;;;;;57.97;2.50;;;;;;;;;;5054188;28;20549;-77
2022/05/10 13:02:53;;;;;;;58.00;2.67;;;;;;;;;;5054419;28;20517;-76
2022/05/10 13:05:24;;;;;;;57.97;2.90;;;;;;;;;;5054457;28;20502;-76
2022/05/10 13:08:02;;;;;;;58.00;2.73;;;;;;;;;;5053608;28;20484;-76
2022/05/10 13:10:30;;;;;;;58.00;2.50;;;;;;;;;;5053789;28;20472;-76
2022/05/10 13:13:00;;;;;;;58.30;2.80;;;;;;;;;;5052786;28;21019;-76
2022/05/10 13:15:30;;;;;;;57.77;2.13;;;;;;;;;;5070739;28;20462;-76
2022/05/10 13:17:58;;;;;;;57.97;2.67;;;;;;;;;;5073553;28;20450;-76
2022/05/10 13:20:27;;;;;;;58.10;2.77;;;;;;;;;;5073978;28;20475;-76
2022/05/10 13:22:56;;;;;;;57.40;2.73;;;;;;;;;;5073757;28;20534;-77
2022/05/10 13:25:27;;;;;;;57.53;2.37;;;;;;;;;;5073711;28;20888;-77
2022/05/10 13:28:06;;;;;;;58.27;3.70;;;;;;;;;;5073395;28;20453;-75
2022/05/10 13:30:36;;;;;;;57.97;2.70;;;;;;;;;;5073648;28;20478;-75
2022/05/10 13:33:03;;;;;;;58.87;2.67;;;;;;;;;;5072547;28;20490;-75
2022/05/10 13:35:32;;;;;;;58.70;3.20;;;;;;;;;;5073648;28;20451;-75
2022/05/10 13:38:00;;;;;;;58.07;2.80;;;;;;;;;;5072806;28;20448;-75
2022/05/10 13:40:29;;;;;;;57.63;2.73;;;;;;;;;;5073721;28;21002;-75
2022/05/10 13:42:58;;;;;;;58.17;2.70;;;;;;;;;;5073619;28;20447;-75
2022/05/10 13:45:27;;;;;;;59.20;2.57;;;;;;;;;;5069999;28;20457;-73
2022/05/10 13:48:00;;;;;;;57.77;2.80;;;;;;;;;;5072706;28;20451;-74
2022/05/10 13:50:28;;;;;;;58.63;2.73;;;;;;;;;;5073116;28;20562;-74
2022/05/10 13:52:58;;;;;;;58.17;2.67;;;;;;;;;;5073378;28;20455;-74
2022/05/10 13:55:26;;;;;;;58.67;2.93;;;;;;;;;;5073674;28;20542;-74
2022/05/10 13:57:55;;;;;;;58.27;2.93;;;;;;;;;;5072677;28;20451;-75
2022/05/10 14:00:25;;;;;;;58.20;2.60;;;;;;;;;;5073236;28;20467;-75
2022/05/10 14:02:53;;;;;;;58.10;2.50;;;;;;;;;;5072947;28;20458;-74
2022/05/10 14:05:22;;;;;;;59.27;2.90;;;;;;;;;;5073095;28;20451;-75
2022/05/10 14:07:52;;;;;;;60.20;3.30;;;;;;;;;;5072456;28;20538;-74
2022/05/10 14:10:20;;;;;;;58.53;2.90;;;;;;;;;;5072941;28;21078;-75
2022/05/10 14:12:50;;;;;;;58.40;2.80;;;;;;;;;;5072807;28;20880;-74
2022/05/10 14:15:26;;;;;;;59.17;2.93;;;;;;;;;;5071789;28;20483;-74
2022/05/10 14:17:55;;;;;;;58.47;3.00;;;;;;;;;;5068969;28;20446;-74
2022/05/10 14:20:25;;;;;;;59.60;2.80;;;;;;;;;;5073179;28;20893;-74
2022/05/10 14:22:54;;;;;;;58.00;2.73;;;;;;;;;;5072684;28;20481;-75
2022/05/10 14:25:22;;;;;;;58.10;3.10;;;;;;;;;;5072644;28;20962;-75
2022/05/10 14:28:00;;;;;;;58.77;3.40;;;;;;;;;;5071818;28;20494;-74
2022/05/10 14:30:28;;;;;;;58.00;2.70;;;;;;;;;;5072580;28;20471;-75
2022/05/10 14:32:55;;;;;;;58.10;2.60;;;;;;;;;;5072508;28;20994;-74
2022/05/10 14:35:30;;;;;;;58.57;3.00;;;;;;;;;;5071857;28;20849;-74
2022/05/10 14:38:00;;;;;;;58.10;2.70;;;;;;;;;;5071527;28;20455;-74
2022/05/10 14:40:31;;;;;;;59.60;3.37;;;;;;;;;;5072255;28;20486;-73
2022/05/10 14:42:59;;;;;;;59.97;2.90;;;;;;;;;;5072567;28;20447;-74
2022/05/10 14:45:38;;;;;;;58.27;2.73;;;;;;;;;;5072355;28;20454;-74
2022/05/10 14:48:22;;;;;;;62.93;2.80;;;;;;;;;;5068485;28;20786;-74
2022/05/10 14:50:54;;;;;;;59.03;3.33;;;;;;;;;;5071953;28;20478;-74
2022/05/10 14:53:22;;;;;;;60.50;4.13;;;;;;;;;;5072307;28;20509;-74
2022/05/10 14:55:50;;;;;;;58.93;3.07;;;;;;;;;;5072364;28;20948;-74
2022/05/10 14:58:23;;;;;;;59.90;3.80;;;;;;;;;;5071332;28;20505;-74
2022/05/10 15:01:00;;;;;;;58.40;2.80;;;;;;;;;;5072019;28;20467;-74